sensor_id;sensor_type;location;lat;lon;timestamp;P1;durP1;ratioP1;P2;durP2;ratioP2
7501;SDS011;3792;47.740;7.606;2023-08-06T00:01:55;3.17;;;1.73;;
7501;SDS011;3792;47.740;7.606;2023-08-06T00:04:22;1.60;;;1.50;;
7501;SDS011;3792;47.740;7.606;2023-08-06T00:06:49;2.27;;;1.80;;
7501;SDS011;3792;47.740;7.606;2023-08-06T00:09:16;1.83;;;1.60;;
7501;SDS011;3792;47.740;7.606;2023-08-06T00:11:45;2.30;;;2.10;;
7501;SDS011;3792;47.740;7.606;2023-08-06T00:14:12;1.97;;;1.77;;
7501;SDS011;3792;47.740;7.606;2023-08-06T00:16:42;1.80;;;1.60;;
7501;SDS011;3792;47.740;7.606;2023-08-06T00:19:10;3.00;;;1.90;;
7501;SDS011;3792;47.740;7.606;2023-08-06T00:21:37;6.00;;;1.87;;
7501;SDS011;3792;47.740;7.606;2023-08-06T00:24:04;2.67;;;2.07;;
7501;SDS011;3792;47.740;7.606;2023-08-06T00:26:31;1.83;;;1.70;;
7501;SDS011;3792;47.740;7.606;2023-08-06T00:29:00;2.00;;;1.60;;
7501;SDS011;3792;47.740;7.606;2023-08-06T00:31:27;1.50;;;1.40;;
7501;SDS011;3792;47.740;7.606;2023-08-06T00:33:54;3.07;;;1.80;;
7501;SDS011;3792;47.740;7.606;2023-08-06T00:36:21;2.40;;;1.70;;
7501;SDS011;3792;47.740;7.606;2023-08-06T00:38:48;2.60;;;1.70;;
7501;SDS011;3792;47.740;7.606;2023-08-06T00:41:15;1.97;;;1.37;;
7501;SDS011;3792;47.740;7.606;2023-08-06T00:43:42;1.83;;;1.60;;
7501;SDS011;3792;47.740;7.606;2023-08-06T00:46:11;3.27;;;1.50;;
7501;SDS011;3792;47.740;7.606;2023-08-06T00:48:38;1.60;;;1.50;;
7501;SDS011;3792;47.740;7.606;2023-08-06T00:51:06;1.70;;;1.60;;
7501;SDS011;3792;47.740;7.606;2023-08-06T00:53:33;3.53;;;1.50;;
7501;SDS011;3792;47.740;7.606;2023-08-06T00:56:00;2.37;;;1.40;;
7501;SDS011;3792;47.740;7.606;2023-08-06T00:58:28;1.70;;;1.60;;
7501;SDS011;3792;47.740;7.606;2023-08-06T01:00:55;2.67;;;1.80;;
7501;SDS011;3792;47.740;7.606;2023-08-06T01:03:24;1.60;;;1.50;;
7501;SDS011;3792;47.740;7.606;2023-08-06T01:05:51;1.70;;;1.60;;
7501;SDS011;3792;47.740;7.606;2023-08-06T01:08:21;1.77;;;1.43;;
7501;SDS011;3792;47.740;7.606;2023-08-06T01:11:04;2.47;;;1.50;;
7501;SDS011;3792;47.740;7.606;2023-08-06T01:13:41;1.73;;;1.63;;
7501;SDS011;3792;47.740;7.606;2023-08-06T01:16:12;2.03;;;1.47;;
7501;SDS011;3792;47.740;7.606;2023-08-06T01:18:43;2.90;;;1.17;;
7501;SDS011;3792;47.740;7.606;2023-08-06T01:21:15;2.83;;;1.50;;
7501;SDS011;3792;47.740;7.606;2023-08-06T01:23:43;3.60;;;1.50;;
7501;SDS011;3792;47.740;7.606;2023-08-06T01:26:11;1.90;;;1.50;;
7501;SDS011;3792;47.740;7.606;2023-08-06T01:28:47;1.23;;;1.13;;
7501;SDS011;3792;47.740;7.606;2023-08-06T01:31:31;2.13;;;1.40;;
7501;SDS011;3792;47.740;7.606;2023-08-06T01:34:00;1.60;;;1.10;;
7501;SDS011;3792;47.740;7.606;2023-08-06T01:36:30;3.90;;;1.60;;
7501;SDS011;3792;47.740;7.606;2023-08-06T01:38:58;3.27;;;1.30;;
7501;SDS011;3792;47.740;7.606;2023-08-06T01:41:26;1.43;;;1.30;;
7501;SDS011;3792;47.740;7.606;2023-08-06T01:43:53;1.40;;;1.27;;
7501;SDS011;3792;47.740;7.606;2023-08-06T01:46:20;1.27;;;1.17;;
7501;SDS011;3792;47.740;7.606;2023-08-06T01:48:47;2.93;;;1.30;;
7501;SDS011;3792;47.740;7.606;2023-08-06T01:51:14;1.43;;;1.20;;
7501;SDS011;3792;47.740;7.606;2023-08-06T01:53:42;2.37;;;1.33;;
7501;SDS011;3792;47.740;7.606;2023-08-06T01:56:09;1.10;;;1.10;;
7501;SDS011;3792;47.740;7.606;2023-08-06T01:58:36;2.33;;;1.37;;
7501;SDS011;3792;47.740;7.606;2023-08-06T02:01:03;1.63;;;0.90;;
7501;SDS011;3792;47.740;7.606;2023-08-06T02:03:30;1.60;;;1.33;;
7501;SDS011;3792;47.740;7.606;2023-08-06T02:05:57;1.70;;;1.37;;
7501;SDS011;3792;47.740;7.606;2023-08-06T02:08:24;3.40;;;1.43;;
7501;SDS011;3792;47.740;7.606;2023-08-06T02:10:54;2.73;;;1.43;;
7501;SDS011;3792;47.740;7.606;2023-08-06T02:13:23;1.30;;;1.00;;
7501;SDS011;3792;47.740;7.606;2023-08-06T02:15:50;2.07;;;1.13;;
7501;SDS011;3792;47.740;7.606;2023-08-06T02:18:17;2.13;;;1.23;;
7501;SDS011;3792;47.740;7.606;2023-08-06T02:20:44;2.87;;;1.30;;
7501;SDS011;3792;47.740;7.606;2023-08-06T02:23:22;1.67;;;1.10;;
7501;SDS011;3792;47.740;7.606;2023-08-06T02:25:57;3.33;;;1.20;;
7501;SDS011;3792;47.740;7.606;2023-08-06T02:28:25;3.73;;;1.80;;
7501;SDS011;3792;47.740;7.606;2023-08-06T02:30:52;1.23;;;1.13;;
7501;SDS011;3792;47.740;7.606;2023-08-06T02:33:19;2.40;;;0.90;;
7501;SDS011;3792;47.740;7.606;2023-08-06T02:35:46;1.90;;;0.90;;
7501;SDS011;3792;47.740;7.606;2023-08-06T02:38:13;0.77;;;0.70;;
7501;SDS011;3792;47.740;7.606;2023-08-06T02:40:42;2.27;;;0.80;;
7501;SDS011;3792;47.740;7.606;2023-08-06T02:43:12;2.27;;;0.83;;
7501;SDS011;3792;47.740;7.606;2023-08-06T02:45:39;2.03;;;1.00;;
7501;SDS011;3792;47.740;7.606;2023-08-06T02:48:06;0.83;;;0.47;;
7501;SDS011;3792;47.740;7.606;2023-08-06T02:50:37;0.93;;;0.67;;
7501;SDS011;3792;47.740;7.606;2023-08-06T02:53:05;0.93;;;0.50;;
7501;SDS011;3792;47.740;7.606;2023-08-06T02:55:32;0.70;;;0.53;;
7501;SDS011;3792;47.740;7.606;2023-08-06T02:57:59;1.07;;;0.70;;
7501;SDS011;3792;47.740;7.606;2023-08-06T03:00:28;1.17;;;0.60;;
7501;SDS011;3792;47.740;7.606;2023-08-06T03:02:55;3.57;;;0.90;;
7501;SDS011;3792;47.740;7.606;2023-08-06T03:05:22;2.33;;;0.77;;
7501;SDS011;3792;47.740;7.606;2023-08-06T03:07:49;3.33;;;1.10;;
7501;SDS011;3792;47.740;7.606;2023-08-06T03:10:16;2.00;;;1.10;;
7501;SDS011;3792;47.740;7.606;2023-08-06T03:12:45;2.53;;;0.90;;
7501;SDS011;3792;47.740;7.606;2023-08-06T03:15:12;2.70;;;0.97;;
7501;SDS011;3792;47.740;7.606;2023-08-06T03:17:41;1.73;;;0.90;;
7501;SDS011;3792;47.740;7.606;2023-08-06T03:20:09;2.77;;;1.00;;
7501;SDS011;3792;47.740;7.606;2023-08-06T03:22:37;4.67;;;1.10;;
7501;SDS011;3792;47.740;7.606;2023-08-06T03:25:04;2.70;;;1.10;;
7501;SDS011;3792;47.740;7.606;2023-08-06T03:27:31;2.53;;;1.03;;
7501;SDS011;3792;47.740;7.606;2023-08-06T03:29:58;6.03;;;1.83;;
7501;SDS011;3792;47.740;7.606;2023-08-06T03:32:26;2.47;;;1.10;;
7501;SDS011;3792;47.740;7.606;2023-08-06T03:34:54;1.77;;;0.90;;
7501;SDS011;3792;47.740;7.606;2023-08-06T03:37:21;3.03;;;1.13;;
7501;SDS011;3792;47.740;7.606;2023-08-06T03:39:48;4.03;;;1.20;;
7501;SDS011;3792;47.740;7.606;2023-08-06T03:42:15;1.57;;;1.00;;
7501;SDS011;3792;47.740;7.606;2023-08-06T03:44:42;3.13;;;1.17;;
7501;SDS011;3792;47.740;7.606;2023-08-06T03:47:09;4.13;;;1.40;;
7501;SDS011;3792;47.740;7.606;2023-08-06T03:49:36;4.40;;;1.50;;
7501;SDS011;3792;47.740;7.606;2023-08-06T03:52:05;3.70;;;1.43;;
7501;SDS011;3792;47.740;7.606;2023-08-06T03:54:33;5.67;;;1.70;;
7501;SDS011;3792;47.740;7.606;2023-08-06T03:57:00;5.27;;;1.50;;
7501;SDS011;3792;47.740;7.606;2023-08-06T03:59:27;3.23;;;1.60;;
7501;SDS011;3792;47.740;7.606;2023-08-06T04:01:54;4.27;;;1.20;;
7501;SDS011;3792;47.740;7.606;2023-08-06T04:04:21;4.57;;;1.53;;
7501;SDS011;3792;47.740;7.606;2023-08-06T04:06:48;3.97;;;1.40;;
7501;SDS011;3792;47.740;7.606;2023-08-06T04:09:17;5.03;;;1.53;;
7501;SDS011;3792;47.740;7.606;2023-08-06T04:11:44;3.37;;;1.10;;
7501;SDS011;3792;47.740;7.606;2023-08-06T04:14:11;4.47;;;1.60;;
7501;SDS011;3792;47.740;7.606;2023-08-06T04:16:38;4.30;;;1.47;;
7501;SDS011;3792;47.740;7.606;2023-08-06T04:19:05;5.37;;;1.77;;
7501;SDS011;3792;47.740;7.606;2023-08-06T04:21:31;6.73;;;1.60;;
7501;SDS011;3792;47.740;7.606;2023-08-06T04:23:59;4.90;;;1.73;;
7501;SDS011;3792;47.740;7.606;2023-08-06T04:26:28;4.00;;;1.60;;
7501;SDS011;3792;47.740;7.606;2023-08-06T04:28:55;6.33;;;2.13;;
7501;SDS011;3792;47.740;7.606;2023-08-06T04:31:22;5.53;;;2.10;;
7501;SDS011;3792;47.740;7.606;2023-08-06T04:33:49;4.33;;;1.30;;
7501;SDS011;3792;47.740;7.606;2023-08-06T04:36:16;4.57;;;1.50;;
7501;SDS011;3792;47.740;7.606;2023-08-06T04:38:43;3.50;;;1.23;;
7501;SDS011;3792;47.740;7.606;2023-08-06T04:41:12;5.30;;;1.40;;
7501;SDS011;3792;47.740;7.606;2023-08-06T04:43:40;3.00;;;1.37;;
7501;SDS011;3792;47.740;7.606;2023-08-06T04:46:07;4.20;;;1.30;;
7501;SDS011;3792;47.740;7.606;2023-08-06T04:48:34;4.63;;;1.70;;
7501;SDS011;3792;47.740;7.606;2023-08-06T04:51:01;6.33;;;1.90;;
7501;SDS011;3792;47.740;7.606;2023-08-06T04:53:29;4.73;;;1.60;;
7501;SDS011;3792;47.740;7.606;2023-08-06T04:55:56;4.40;;;1.50;;
7501;SDS011;3792;47.740;7.606;2023-08-06T04:58:23;7.47;;;1.77;;
7501;SDS011;3792;47.740;7.606;2023-08-06T05:00:52;5.70;;;1.87;;
7501;SDS011;3792;47.740;7.606;2023-08-06T05:03:20;2.43;;;1.23;;
7501;SDS011;3792;47.740;7.606;2023-08-06T05:05:47;7.63;;;1.63;;
7501;SDS011;3792;47.740;7.606;2023-08-06T05:08:15;6.67;;;1.50;;
7501;SDS011;3792;47.740;7.606;2023-08-06T05:10:43;4.10;;;1.47;;
7501;SDS011;3792;47.740;7.606;2023-08-06T05:13:10;3.17;;;1.20;;
7501;SDS011;3792;47.740;7.606;2023-08-06T05:15:37;5.47;;;1.63;;
7501;SDS011;3792;47.740;7.606;2023-08-06T05:18:08;3.20;;;1.40;;
7501;SDS011;3792;47.740;7.606;2023-08-06T05:20:36;4.60;;;1.40;;
7501;SDS011;3792;47.740;7.606;2023-08-06T05:23:04;2.83;;;1.27;;
7501;SDS011;3792;47.740;7.606;2023-08-06T05:25:31;4.13;;;1.23;;
7501;SDS011;3792;47.740;7.606;2023-08-06T05:27:58;4.47;;;1.83;;
7501;SDS011;3792;47.740;7.606;2023-08-06T05:30:26;5.67;;;1.70;;
7501;SDS011;3792;47.740;7.606;2023-08-06T05:32:53;6.27;;;1.30;;
7501;SDS011;3792;47.740;7.606;2023-08-06T05:35:22;3.87;;;1.40;;
7501;SDS011;3792;47.740;7.606;2023-08-06T05:37:50;3.60;;;1.30;;
7501;SDS011;3792;47.740;7.606;2023-08-06T05:40:17;3.67;;;1.20;;
7501;SDS011;3792;47.740;7.606;2023-08-06T05:42:44;6.10;;;1.63;;
7501;SDS011;3792;47.740;7.606;2023-08-06T05:45:11;4.33;;;1.60;;
7501;SDS011;3792;47.740;7.606;2023-08-06T05:47:38;2.43;;;1.00;;
7501;SDS011;3792;47.740;7.606;2023-08-06T05:50:05;3.90;;;1.37;;
7501;SDS011;3792;47.740;7.606;2023-08-06T05:52:35;3.43;;;1.10;;
7501;SDS011;3792;47.740;7.606;2023-08-06T05:55:02;4.10;;;1.30;;
7501;SDS011;3792;47.740;7.606;2023-08-06T05:57:29;3.90;;;1.23;;
7501;SDS011;3792;47.740;7.606;2023-08-06T05:59:56;4.10;;;1.47;;
7501;SDS011;3792;47.740;7.606;2023-08-06T06:02:23;4.00;;;1.27;;
7501;SDS011;3792;47.740;7.606;2023-08-06T06:04:51;2.43;;;0.90;;
7501;SDS011;3792;47.740;7.606;2023-08-06T06:07:18;4.07;;;1.00;;
7501;SDS011;3792;47.740;7.606;2023-08-06T06:09:46;3.07;;;1.20;;
7501;SDS011;3792;47.740;7.606;2023-08-06T06:12:13;2.37;;;1.10;;
7501;SDS011;3792;47.740;7.606;2023-08-06T06:14:40;3.90;;;1.10;;
7501;SDS011;3792;47.740;7.606;2023-08-06T06:17:07;2.53;;;1.10;;
7501;SDS011;3792;47.740;7.606;2023-08-06T06:19:34;3.13;;;1.00;;
7501;SDS011;3792;47.740;7.606;2023-08-06T06:22:01;2.63;;;0.90;;
7501;SDS011;3792;47.740;7.606;2023-08-06T06:24:29;2.97;;;0.97;;
7501;SDS011;3792;47.740;7.606;2023-08-06T06:26:57;2.67;;;1.17;;
7501;SDS011;3792;47.740;7.606;2023-08-06T06:29:24;1.40;;;0.93;;
7501;SDS011;3792;47.740;7.606;2023-08-06T06:31:51;1.27;;;0.90;;
7501;SDS011;3792;47.740;7.606;2023-08-06T06:34:18;1.80;;;0.47;;
7501;SDS011;3792;47.740;7.606;2023-08-06T06:36:45;2.37;;;0.77;;
7501;SDS011;3792;47.740;7.606;2023-08-06T06:39:12;1.10;;;0.60;;
7501;SDS011;3792;47.740;7.606;2023-08-06T06:41:39;1.33;;;0.87;;
7501;SDS011;3792;47.740;7.606;2023-08-06T06:44:08;2.50;;;0.80;;
7501;SDS011;3792;47.740;7.606;2023-08-06T06:46:35;2.70;;;0.80;;
7501;SDS011;3792;47.740;7.606;2023-08-06T06:49:02;1.70;;;0.80;;
7501;SDS011;3792;47.740;7.606;2023-08-06T06:51:29;1.03;;;0.60;;
7501;SDS011;3792;47.740;7.606;2023-08-06T06:53:57;1.33;;;0.60;;
7501;SDS011;3792;47.740;7.606;2023-08-06T06:56:24;0.40;;;0.40;;
7501;SDS011;3792;47.740;7.606;2023-08-06T06:58:51;1.67;;;0.80;;
7501;SDS011;3792;47.740;7.606;2023-08-06T07:01:19;0.57;;;0.57;;
7501;SDS011;3792;47.740;7.606;2023-08-06T07:03:46;1.07;;;0.63;;
7501;SDS011;3792;47.740;7.606;2023-08-06T07:06:13;2.83;;;0.70;;
7501;SDS011;3792;47.740;7.606;2023-08-06T07:08:41;1.17;;;0.40;;
7501;SDS011;3792;47.740;7.606;2023-08-06T07:11:08;1.70;;;0.60;;
7501;SDS011;3792;47.740;7.606;2023-08-06T07:13:35;0.47;;;0.30;;
7501;SDS011;3792;47.740;7.606;2023-08-06T07:16:02;0.53;;;0.50;;
7501;SDS011;3792;47.740;7.606;2023-08-06T07:18:31;0.43;;;0.40;;
7501;SDS011;3792;47.740;7.606;2023-08-06T07:20:58;0.20;;;0.20;;
7501;SDS011;3792;47.740;7.606;2023-08-06T07:23:25;0.77;;;0.30;;
7501;SDS011;3792;47.740;7.606;2023-08-06T07:25:52;0.67;;;0.30;;
7501;SDS011;3792;47.740;7.606;2023-08-06T07:28:19;1.53;;;0.30;;
7501;SDS011;3792;47.740;7.606;2023-08-06T07:30:47;1.07;;;0.50;;
7501;SDS011;3792;47.740;7.606;2023-08-06T07:33:14;0.87;;;0.30;;
7501;SDS011;3792;47.740;7.606;2023-08-06T07:35:43;0.83;;;0.30;;
7501;SDS011;3792;47.740;7.606;2023-08-06T07:38:10;0.83;;;0.50;;
7501;SDS011;3792;47.740;7.606;2023-08-06T07:40:38;0.47;;;0.30;;
7501;SDS011;3792;47.740;7.606;2023-08-06T07:43:05;0.70;;;0.53;;
7501;SDS011;3792;47.740;7.606;2023-08-06T07:45:33;0.40;;;0.40;;
7501;SDS011;3792;47.740;7.606;2023-08-06T07:48:01;0.90;;;0.33;;
7501;SDS011;3792;47.740;7.606;2023-08-06T07:50:28;1.10;;;0.43;;
7501;SDS011;3792;47.740;7.606;2023-08-06T07:52:56;0.30;;;0.30;;
7501;SDS011;3792;47.740;7.606;2023-08-06T07:55:23;0.40;;;0.30;;
7501;SDS011;3792;47.740;7.606;2023-08-06T07:57:51;0.30;;;0.30;;
7501;SDS011;3792;47.740;7.606;2023-08-06T08:00:18;0.30;;;0.30;;
7501;SDS011;3792;47.740;7.606;2023-08-06T08:02:45;0.40;;;0.40;;
7501;SDS011;3792;47.740;7.606;2023-08-06T08:05:12;0.53;;;0.30;;
7501;SDS011;3792;47.740;7.606;2023-08-06T08:07:39;0.93;;;0.90;;
7501;SDS011;3792;47.740;7.606;2023-08-06T08:10:08;0.93;;;0.83;;
7501;SDS011;3792;47.740;7.606;2023-08-06T08:12:35;1.67;;;0.40;;
7501;SDS011;3792;47.740;7.606;2023-08-06T08:15:03;1.00;;;0.40;;
7501;SDS011;3792;47.740;7.606;2023-08-06T08:17:31;0.40;;;0.40;;
7501;SDS011;3792;47.740;7.606;2023-08-06T08:19:59;0.57;;;0.30;;
7501;SDS011;3792;47.740;7.606;2023-08-06T08:22:26;0.97;;;0.40;;
7501;SDS011;3792;47.740;7.606;2023-08-06T08:24:53;0.97;;;0.53;;
7501;SDS011;3792;47.740;7.606;2023-08-06T08:27:22;0.40;;;0.40;;
7501;SDS011;3792;47.740;7.606;2023-08-06T08:29:49;2.03;;;0.60;;
7501;SDS011;3792;47.740;7.606;2023-08-06T08:32:16;1.60;;;0.50;;
7501;SDS011;3792;47.740;7.606;2023-08-06T08:34:43;0.33;;;0.33;;
7501;SDS011;3792;47.740;7.606;2023-08-06T08:37:10;2.77;;;0.40;;
7501;SDS011;3792;47.740;7.606;2023-08-06T08:39:37;1.77;;;0.60;;
7501;SDS011;3792;47.740;7.606;2023-08-06T08:42:04;0.50;;;0.40;;
7501;SDS011;3792;47.740;7.606;2023-08-06T08:44:34;0.47;;;0.40;;
7501;SDS011;3792;47.740;7.606;2023-08-06T08:47:04;1.33;;;0.50;;
7501;SDS011;3792;47.740;7.606;2023-08-06T08:49:33;1.43;;;0.40;;
7501;SDS011;3792;47.740;7.606;2023-08-06T08:52:01;0.40;;;0.40;;
7501;SDS011;3792;47.740;7.606;2023-08-06T08:54:31;0.73;;;0.30;;
7501;SDS011;3792;47.740;7.606;2023-08-06T08:56:59;0.97;;;0.30;;
7501;SDS011;3792;47.740;7.606;2023-08-06T08:59:27;0.87;;;0.30;;
7501;SDS011;3792;47.740;7.606;2023-08-06T09:01:56;0.20;;;0.20;;
7501;SDS011;3792;47.740;7.606;2023-08-06T09:04:24;1.03;;;0.47;;
7501;SDS011;3792;47.740;7.606;2023-08-06T09:06:56;0.83;;;0.50;;
7501;SDS011;3792;47.740;7.606;2023-08-06T09:09:26;0.33;;;0.33;;
7501;SDS011;3792;47.740;7.606;2023-08-06T09:11:59;0.30;;;0.30;;
7501;SDS011;3792;47.740;7.606;2023-08-06T09:14:28;0.50;;;0.50;;
7501;SDS011;3792;47.740;7.606;2023-08-06T09:16:56;0.70;;;0.50;;
7501;SDS011;3792;47.740;7.606;2023-08-06T09:19:23;0.40;;;0.40;;
7501;SDS011;3792;47.740;7.606;2023-08-06T09:21:51;0.50;;;0.47;;
7501;SDS011;3792;47.740;7.606;2023-08-06T09:24:21;0.30;;;0.30;;
7501;SDS011;3792;47.740;7.606;2023-08-06T09:26:49;0.47;;;0.47;;
7501;SDS011;3792;47.740;7.606;2023-08-06T09:29:16;0.60;;;0.60;;
7501;SDS011;3792;47.740;7.606;2023-08-06T09:31:43;0.50;;;0.50;;
7501;SDS011;3792;47.740;7.606;2023-08-06T09:34:14;0.30;;;0.30;;
7501;SDS011;3792;47.740;7.606;2023-08-06T09:36:42;1.23;;;0.53;;
7501;SDS011;3792;47.740;7.606;2023-08-06T09:39:12;0.37;;;0.37;;
7501;SDS011;3792;47.740;7.606;2023-08-06T09:41:41;1.27;;;0.30;;
7501;SDS011;3792;47.740;7.606;2023-08-06T09:44:13;0.53;;;0.53;;
7501;SDS011;3792;47.740;7.606;2023-08-06T09:46:46;1.27;;;1.00;;
7501;SDS011;3792;47.740;7.606;2023-08-06T09:49:16;0.70;;;0.70;;
7501;SDS011;3792;47.740;7.606;2023-08-06T09:51:44;1.60;;;0.40;;
7501;SDS011;3792;47.740;7.606;2023-08-06T09:54:12;1.90;;;1.80;;
7501;SDS011;3792;47.740;7.606;2023-08-06T09:56:40;1.33;;;0.90;;
7501;SDS011;3792;47.740;7.606;2023-08-06T09:59:08;0.30;;;0.30;;
7501;SDS011;3792;47.740;7.606;2023-08-06T10:01:36;0.50;;;0.50;;
7501;SDS011;3792;47.740;7.606;2023-08-06T10:04:04;1.07;;;0.60;;
7501;SDS011;3792;47.740;7.606;2023-08-06T10:06:34;0.73;;;0.73;;
7501;SDS011;3792;47.740;7.606;2023-08-06T10:09:02;0.50;;;0.50;;
7501;SDS011;3792;47.740;7.606;2023-08-06T10:11:29;0.53;;;0.47;;
7501;SDS011;3792;47.740;7.606;2023-08-06T10:13:58;0.60;;;0.60;;
7501;SDS011;3792;47.740;7.606;2023-08-06T10:16:30;0.53;;;0.40;;
7501;SDS011;3792;47.740;7.606;2023-08-06T10:18:58;0.53;;;0.50;;
7501;SDS011;3792;47.740;7.606;2023-08-06T10:21:25;0.40;;;0.40;;
7501;SDS011;3792;47.740;7.606;2023-08-06T10:23:56;0.50;;;0.40;;
7501;SDS011;3792;47.740;7.606;2023-08-06T10:26:25;0.57;;;0.40;;
7501;SDS011;3792;47.740;7.606;2023-08-06T10:28:53;0.57;;;0.50;;
7501;SDS011;3792;47.740;7.606;2023-08-06T10:31:20;0.80;;;0.70;;
7501;SDS011;3792;47.740;7.606;2023-08-06T10:34:21;0.60;;;0.60;;
7501;SDS011;3792;47.740;7.606;2023-08-06T10:36:48;1.10;;;0.70;;
7501;SDS011;3792;47.740;7.606;2023-08-06T10:39:16;0.50;;;0.50;;
7501;SDS011;3792;47.740;7.606;2023-08-06T10:41:43;0.53;;;0.50;;
7501;SDS011;3792;47.740;7.606;2023-08-06T10:44:10;0.97;;;0.30;;
7501;SDS011;3792;47.740;7.606;2023-08-06T10:46:38;0.40;;;0.40;;
7501;SDS011;3792;47.740;7.606;2023-08-06T10:49:05;0.20;;;0.20;;
7501;SDS011;3792;47.740;7.606;2023-08-06T10:51:32;1.33;;;0.37;;
7501;SDS011;3792;47.740;7.606;2023-08-06T10:53:59;1.23;;;0.40;;
7501;SDS011;3792;47.740;7.606;2023-08-06T10:56:28;0.40;;;0.40;;
7501;SDS011;3792;47.740;7.606;2023-08-06T10:58:56;0.50;;;0.40;;
7501;SDS011;3792;47.740;7.606;2023-08-06T11:01:23;0.63;;;0.50;;
7501;SDS011;3792;47.740;7.606;2023-08-06T11:03:55;1.00;;;1.00;;
7501;SDS011;3792;47.740;7.606;2023-08-06T11:06:22;0.40;;;0.40;;
7501;SDS011;3792;47.740;7.606;2023-08-06T11:08:52;0.37;;;0.37;;
7501;SDS011;3792;47.740;7.606;2023-08-06T11:11:19;0.30;;;0.30;;
7501;SDS011;3792;47.740;7.606;2023-08-06T11:13:50;0.40;;;0.40;;
7501;SDS011;3792;47.740;7.606;2023-08-06T11:16:18;0.50;;;0.50;;
7501;SDS011;3792;47.740;7.606;2023-08-06T11:18:46;0.40;;;0.40;;
7501;SDS011;3792;47.740;7.606;2023-08-06T11:21:13;0.63;;;0.50;;
7501;SDS011;3792;47.740;7.606;2023-08-06T11:23:40;0.50;;;0.50;;
7501;SDS011;3792;47.740;7.606;2023-08-06T11:26:07;0.50;;;0.50;;
7501;SDS011;3792;47.740;7.606;2023-08-06T11:28:34;0.63;;;0.63;;
7501;SDS011;3792;47.740;7.606;2023-08-06T11:31:03;1.03;;;0.83;;
7501;SDS011;3792;47.740;7.606;2023-08-06T11:33:30;0.60;;;0.60;;
7501;SDS011;3792;47.740;7.606;2023-08-06T11:35:57;0.57;;;0.50;;
7501;SDS011;3792;47.740;7.606;2023-08-06T11:38:26;0.70;;;0.70;;
7501;SDS011;3792;47.740;7.606;2023-08-06T11:40:54;0.60;;;0.60;;
7501;SDS011;3792;47.740;7.606;2023-08-06T11:43:21;0.77;;;0.77;;
7501;SDS011;3792;47.740;7.606;2023-08-06T11:45:48;1.80;;;0.87;;
7501;SDS011;3792;47.740;7.606;2023-08-06T11:48:17;0.87;;;0.73;;
7501;SDS011;3792;47.740;7.606;2023-08-06T11:50:44;1.13;;;0.90;;
7501;SDS011;3792;47.740;7.606;2023-08-06T11:53:12;2.40;;;0.80;;
7501;SDS011;3792;47.740;7.606;2023-08-06T11:55:40;0.97;;;0.67;;
7501;SDS011;3792;47.740;7.606;2023-08-06T11:58:08;0.80;;;0.80;;
7501;SDS011;3792;47.740;7.606;2023-08-06T12:00:36;4.93;;;1.23;;
7501;SDS011;3792;47.740;7.606;2023-08-06T12:03:04;0.80;;;0.80;;
7501;SDS011;3792;47.740;7.606;2023-08-06T12:05:33;0.77;;;0.77;;
7501;SDS011;3792;47.740;7.606;2023-08-06T12:08:00;1.03;;;0.83;;
7501;SDS011;3792;47.740;7.606;2023-08-06T12:10:29;1.17;;;1.00;;
7501;SDS011;3792;47.740;7.606;2023-08-06T12:12:57;1.10;;;0.90;;
7501;SDS011;3792;47.740;7.606;2023-08-06T12:15:24;1.63;;;0.90;;
7501;SDS011;3792;47.740;7.606;2023-08-06T12:17:51;2.17;;;0.93;;
7501;SDS011;3792;47.740;7.606;2023-08-06T12:20:18;1.20;;;1.10;;
7501;SDS011;3792;47.740;7.606;2023-08-06T12:22:47;1.30;;;1.17;;
7501;SDS011;3792;47.740;7.606;2023-08-06T12:25:14;1.57;;;0.93;;
7501;SDS011;3792;47.740;7.606;2023-08-06T12:27:42;0.83;;;0.73;;
7501;SDS011;3792;47.740;7.606;2023-08-06T12:30:11;1.10;;;0.87;;
7501;SDS011;3792;47.740;7.606;2023-08-06T12:32:39;1.43;;;0.80;;
7501;SDS011;3792;47.740;7.606;2023-08-06T12:35:06;0.83;;;0.80;;
7501;SDS011;3792;47.740;7.606;2023-08-06T12:37:34;0.80;;;0.80;;
7501;SDS011;3792;47.740;7.606;2023-08-06T12:40:05;1.20;;;0.90;;
7501;SDS011;3792;47.740;7.606;2023-08-06T12:42:33;2.10;;;1.20;;
7501;SDS011;3792;47.740;7.606;2023-08-06T12:45:00;0.83;;;0.83;;
7501;SDS011;3792;47.740;7.606;2023-08-06T12:47:27;0.97;;;0.83;;
7501;SDS011;3792;47.740;7.606;2023-08-06T12:49:54;0.50;;;0.50;;
7501;SDS011;3792;47.740;7.606;2023-08-06T12:52:21;1.63;;;0.87;;
7501;SDS011;3792;47.740;7.606;2023-08-06T12:54:48;0.60;;;0.60;;
7501;SDS011;3792;47.740;7.606;2023-08-06T12:57:17;0.70;;;0.70;;
7501;SDS011;3792;47.740;7.606;2023-08-06T12:59:44;0.80;;;0.60;;
7501;SDS011;3792;47.740;7.606;2023-08-06T13:02:11;0.80;;;0.80;;
7501;SDS011;3792;47.740;7.606;2023-08-06T13:04:38;1.33;;;0.90;;
7501;SDS011;3792;47.740;7.606;2023-08-06T13:07:05;0.50;;;0.50;;
7501;SDS011;3792;47.740;7.606;2023-08-06T13:09:32;0.77;;;0.63;;
7501;SDS011;3792;47.740;7.606;2023-08-06T13:11:59;2.10;;;0.83;;
7501;SDS011;3792;47.740;7.606;2023-08-06T13:14:32;1.03;;;0.80;;
7501;SDS011;3792;47.740;7.606;2023-08-06T13:16:59;1.10;;;0.90;;
7501;SDS011;3792;47.740;7.606;2023-08-06T13:19:26;1.80;;;1.00;;
7501;SDS011;3792;47.740;7.606;2023-08-06T13:22:03;1.07;;;0.90;;
7501;SDS011;3792;47.740;7.606;2023-08-06T13:24:32;0.80;;;0.80;;
7501;SDS011;3792;47.740;7.606;2023-08-06T13:26:59;0.80;;;0.80;;
7501;SDS011;3792;47.740;7.606;2023-08-06T13:29:26;0.70;;;0.70;;
7501;SDS011;3792;47.740;7.606;2023-08-06T13:31:55;0.90;;;0.90;;
7501;SDS011;3792;47.740;7.606;2023-08-06T13:34:22;0.80;;;0.80;;
7501;SDS011;3792;47.740;7.606;2023-08-06T13:36:49;0.83;;;0.83;;
7501;SDS011;3792;47.740;7.606;2023-08-06T13:39:16;0.80;;;0.80;;
7501;SDS011;3792;47.740;7.606;2023-08-06T13:41:44;0.70;;;0.70;;
7501;SDS011;3792;47.740;7.606;2023-08-06T13:44:11;1.43;;;0.97;;
7501;SDS011;3792;47.740;7.606;2023-08-06T13:46:40;0.63;;;0.63;;
7501;SDS011;3792;47.740;7.606;2023-08-06T13:49:09;1.70;;;1.00;;
7501;SDS011;3792;47.740;7.606;2023-08-06T13:51:36;0.93;;;0.87;;
7501;SDS011;3792;47.740;7.606;2023-08-06T13:54:03;0.90;;;0.90;;
7501;SDS011;3792;47.740;7.606;2023-08-06T13:56:32;1.30;;;0.90;;
7501;SDS011;3792;47.740;7.606;2023-08-06T13:58:59;1.23;;;0.90;;
7501;SDS011;3792;47.740;7.606;2023-08-06T14:01:26;1.27;;;0.80;;
7501;SDS011;3792;47.740;7.606;2023-08-06T14:03:53;0.83;;;0.80;;
7501;SDS011;3792;47.740;7.606;2023-08-06T14:06:21;0.90;;;0.90;;
7501;SDS011;3792;47.740;7.606;2023-08-06T14:08:48;2.37;;;1.20;;
7501;SDS011;3792;47.740;7.606;2023-08-06T14:11:15;1.10;;;0.90;;
7501;SDS011;3792;47.740;7.606;2023-08-06T14:13:42;2.67;;;1.10;;
7501;SDS011;3792;47.740;7.606;2023-08-06T14:16:09;3.33;;;1.23;;
7501;SDS011;3792;47.740;7.606;2023-08-06T14:18:36;0.73;;;0.73;;
7501;SDS011;3792;47.740;7.606;2023-08-06T14:21:04;1.03;;;1.00;;
7501;SDS011;3792;47.740;7.606;2023-08-06T14:23:32;4.63;;;1.30;;
7501;SDS011;3792;47.740;7.606;2023-08-06T14:25:59;1.77;;;0.90;;
7501;SDS011;3792;47.740;7.606;2023-08-06T14:28:26;0.90;;;0.90;;
7501;SDS011;3792;47.740;7.606;2023-08-06T14:30:53;1.70;;;1.10;;
7501;SDS011;3792;47.740;7.606;2023-08-06T14:33:21;1.10;;;1.10;;
7501;SDS011;3792;47.740;7.606;2023-08-06T14:35:48;1.00;;;0.90;;
7501;SDS011;3792;47.740;7.606;2023-08-06T14:38:15;2.17;;;0.87;;
7501;SDS011;3792;47.740;7.606;2023-08-06T14:40:44;1.47;;;1.20;;
7501;SDS011;3792;47.740;7.606;2023-08-06T14:43:11;1.20;;;1.20;;
7501;SDS011;3792;47.740;7.606;2023-08-06T14:45:38;1.17;;;1.00;;
7501;SDS011;3792;47.740;7.606;2023-08-06T14:48:06;1.03;;;1.00;;
7501;SDS011;3792;47.740;7.606;2023-08-06T14:50:33;1.20;;;0.97;;
7501;SDS011;3792;47.740;7.606;2023-08-06T14:53:00;1.93;;;1.33;;
7501;SDS011;3792;47.740;7.606;2023-08-06T14:55:27;1.00;;;1.00;;
7501;SDS011;3792;47.740;7.606;2023-08-06T14:57:56;1.20;;;1.20;;
7501;SDS011;3792;47.740;7.606;2023-08-06T15:00:23;1.37;;;1.27;;
7501;SDS011;3792;47.740;7.606;2023-08-06T15:02:50;1.73;;;0.93;;
7501;SDS011;3792;47.740;7.606;2023-08-06T15:05:17;1.23;;;1.10;;
7501;SDS011;3792;47.740;7.606;2023-08-06T15:07:44;1.40;;;1.10;;
7501;SDS011;3792;47.740;7.606;2023-08-06T15:10:11;1.07;;;1.00;;
7501;SDS011;3792;47.740;7.606;2023-08-06T15:12:40;1.97;;;1.30;;
7501;SDS011;3792;47.740;7.606;2023-08-06T15:15:09;1.20;;;1.20;;
7501;SDS011;3792;47.740;7.606;2023-08-06T15:17:36;2.20;;;1.20;;
7501;SDS011;3792;47.740;7.606;2023-08-06T15:20:03;2.63;;;1.27;;